Time;durP1;ratioP1;P1;durP2;ratioP2;P2;SDS_P1;SDS_P2;PMS_P1;PMS_P2;Temp;Humidity;BMP_temperature;BMP_pressure;BME280_temperature;BME280_humidity;BME280_pressure;Samples;Min_cycle;Max_cycle;Signal;HPM_P1;HPM_P2
2023/08/21 00:00:44;;;;;;;12.33;9.53;;;24.40;99.90;;;;;;6338332;22;20448;-40
2023/08/21 00:03:10;;;;;;;10.97;10.10;;;24.40;99.90;;;;;;6338131;22;20388;-40
2023/08/21 00:05:36;;;;;;;11.00;9.90;;;24.40;99.90;;;;;;6311020;22;20163;-38
2023/08/21 00:08:01;;;;;;;11.20;10.30;;;24.40;99.90;;;;;;6338888;22;20247;-39
2023/08/21 00:10:27;;;;;;;11.03;10.03;;;24.40;99.90;;;;;;6339147;22;20163;-39
2023/08/21 00:12:53;;;;;;;10.23;9.40;;;24.30;99.90;;;;;;6339181;22;20132;-40
2023/08/21 00:15:18;;;;;;;10.50;9.70;;;24.30;99.90;;;;;;6338307;22;20152;-42
2023/08/21 00:17:44;;;;;;;10.43;9.53;;;24.30;99.90;;;;;;6338704;22;20147;-39
2023/08/21 00:20:10;;;;;;;10.77;9.87;;;24.30;99.90;;;;;;6339405;22;20387;-39
2023/08/21 00:22:36;;;;;;;10.87;9.97;;;24.40;99.90;;;;;;6338353;22;20206;-39
2023/08/21 00:25:03;;;;;;;10.90;10.10;;;24.40;99.90;;;;;;6338228;22;20369;-42
2023/08/21 00:27:28;;;;;;;11.10;10.30;;;24.30;99.90;;;;;;6337929;22;20384;-40
2023/08/21 00:29:54;;;;;;;9.97;9.17;;;24.30;99.90;;;;;;6337058;22;20677;-40
2023/08/21 00:32:20;;;;;;;10.97;9.90;;;24.30;99.90;;;;;;6336985;22;20171;-38
2023/08/21 00:34:45;;;;;;;10.20;9.30;;;24.30;99.90;;;;;;6336164;22;20246;-39
2023/08/21 00:37:11;;;;;;;9.97;9.20;;;24.30;99.90;;;;;;6338253;22;20131;-39
2023/08/21 00:39:37;;;;;;;13.27;10.80;;;24.30;99.90;;;;;;6338711;22;20527;-39
2023/08/21 00:42:02;;;;;;;10.03;9.23;;;24.30;99.90;;;;;;6338728;22;20151;-41
2023/08/21 00:44:28;;;;;;;10.10;9.30;;;24.30;99.90;;;;;;6313206;22;20166;-39
2023/08/21 00:46:54;;;;;;;10.83;10.00;;;24.30;99.90;;;;;;6340107;22;20157;-39
2023/08/21 00:49:20;;;;;;;10.13;9.40;;;24.30;99.90;;;;;;6312001;22;20132;-38
2023/08/21 00:51:47;;;;;;;11.20;10.23;;;24.20;99.90;;;;;;6338527;22;20159;-41
2023/08/21 00:54:13;;;;;;;10.07;9.07;;;24.20;99.90;;;;;;6339022;22;20737;-38
2023/08/21 00:56:38;;;;;;;10.60;9.70;;;24.20;99.90;;;;;;6310601;22;20446;-42
2023/08/21 00:59:04;;;;;;;10.77;9.87;;;24.20;99.90;;;;;;6338672;22;20553;-39
2023/08/21 01:01:30;;;;;;;11.30;10.40;;;24.10;1.00;;;;;;6312462;22;20148;-39
2023/08/21 01:03:56;;;;;;;11.10;10.20;;;24.00;1.00;;;;;;6338430;22;20136;-38
2023/08/21 01:06:21;;;;;;;10.47;9.57;;;24.00;1.00;;;;;;6309143;22;20241;-39
2023/08/21 01:08:52;;;;;;;10.47;9.40;;;24.00;1.00;;;;;;6311359;22;20226;-38
2023/08/21 01:11:54;;;;;;;10.73;9.83;;;23.90;1.00;;;;;;6336393;22;20430;-39
2023/08/21 01:14:33;;;;;;;11.03;10.03;;;23.90;1.00;;;;;;6280244;22;20396;-39
2023/08/21 01:17:00;;;;;;;11.47;10.47;;;23.90;1.00;;;;;;6336932;22;20744;-39
2023/08/21 01:19:41;;;;;;;11.13;10.23;;;23.90;1.00;;;;;;6334479;22;20814;-41
2023/08/21 01:22:07;;;;;;;10.97;10.07;;;23.80;1.00;;;;;;6335188;22;20413;-39
2023/08/21 01:24:33;;;;;;;10.20;9.50;;;23.80;1.00;;;;;;6338154;22;20389;-39
2023/08/21 01:26:59;;;;;;;11.50;10.40;;;23.80;1.00;;;;;;6337631;22;20547;-39
2023/08/21 01:29:25;;;;;;;11.50;10.60;;;23.80;1.00;;;;;;6336563;22;20415;-40
2023/08/21 01:32:04;;;;;;;10.33;9.43;;;23.80;1.00;;;;;;6336783;22;20194;-39
2023/08/21 01:34:32;;;;;;;10.80;9.90;;;23.80;1.00;;;;;;6336898;22;20386;-39
2023/08/21 01:36:59;;;;;;;11.10;10.20;;;23.80;1.00;;;;;;6336444;22;20454;-39
2023/08/21 01:39:25;;;;;;;11.70;10.70;;;23.70;1.00;;;;;;6339202;22;20384;-39
2023/08/21 01:41:51;;;;;;;10.53;9.73;;;23.70;5.70;;;;;;6337595;22;20421;-39
2023/08/21 01:44:16;;;;;;;11.07;10.23;;;23.70;36.20;;;;;;6339907;22;20384;-39
2023/08/21 01:46:42;;;;;;;11.70;10.80;;;23.70;46.50;;;;;;6340602;22;20182;-39
2023/08/21 01:49:08;;;;;;;11.23;10.33;;;23.70;57.60;;;;;;6340305;22;20142;-39
2023/08/21 01:51:33;;;;;;;10.37;9.47;;;23.60;18.40;;;;;;6340550;22;20171;-39
2023/08/21 01:53:59;;;;;;;10.63;9.63;;;23.50;99.90;;;;;;6339634;22;20148;-41
2023/08/21 01:56:25;;;;;;;10.73;9.70;;;23.40;99.90;;;;;;6340150;22;20271;-39
2023/08/21 01:58:50;;;;;;;11.00;9.90;;;23.40;99.90;;;;;;6338282;22;20405;-39
2023/08/21 02:01:17;;;;;;;11.47;10.37;;;23.40;99.90;;;;;;6338145;22;20246;-38
2023/08/21 02:03:43;;;;;;;11.17;10.20;;;23.40;99.90;;;;;;6338802;22;20268;-41
2023/08/21 02:06:09;;;;;;;11.53;10.53;;;23.40;99.90;;;;;;6340477;22;20414;-39
2023/08/21 02:08:34;;;;;;;11.17;10.27;;;23.40;99.90;;;;;;6339078;22;20256;-40
2023/08/21 02:11:00;;;;;;;12.00;10.90;;;23.40;99.90;;;;;;6337147;22;20190;-39
2023/08/21 02:13:26;;;;;;;11.20;10.10;;;23.40;99.90;;;;;;6338832;22;20143;-39
2023/08/21 02:15:52;;;;;;;10.97;10.07;;;23.40;99.90;;;;;;6339708;22;20358;-38
2023/08/21 02:18:18;;;;;;;10.20;9.40;;;23.40;99.90;;;;;;6340898;22;20148;-39
2023/08/21 02:20:43;;;;;;;11.10;10.20;;;23.40;99.90;;;;;;6338943;22;20239;-39
2023/08/21 02:23:09;;;;;;;10.53;9.63;;;23.40;99.90;;;;;;6337385;22;20155;-41
2023/08/21 02:25:35;;;;;;;11.63;10.73;;;23.40;99.90;;;;;;6339640;22;20507;-38
2023/08/21 02:28:01;;;;;;;12.60;9.57;;;23.40;99.90;;;;;;6339473;22;20425;-38
2023/08/21 02:30:28;;;;;;;12.10;11.00;;;23.40;99.90;;;;;;6340405;22;20171;-39
2023/08/21 02:32:54;;;;;;;11.60;10.57;;;23.30;99.90;;;;;;6340266;22;20790;-38
2023/08/21 02:35:22;;;;;;;10.70;9.90;;;23.30;99.90;;;;;;6338176;22;20417;-39
2023/08/21 02:37:48;;;;;;;11.87;10.87;;;23.30;99.90;;;;;;6340070;22;20411;-41
2023/08/21 02:40:14;;;;;;;11.13;10.13;;;23.30;99.90;;;;;;6340285;22;20353;-42
2023/08/21 02:42:40;;;;;;;11.50;10.60;;;23.30;99.90;;;;;;6340852;22;20147;-39
2023/08/21 02:45:08;;;;;;;10.23;9.40;;;23.20;99.90;;;;;;6339972;22;20162;-41
2023/08/21 02:47:37;;;;;;;10.67;9.73;;;23.20;99.90;;;;;;6339996;22;20147;-40
2023/08/21 02:50:04;;;;;;;11.90;10.90;;;23.20;99.90;;;;;;6339740;22;20401;-40
2023/08/21 02:52:31;;;;;;;11.50;10.40;;;23.20;99.90;;;;;;6339970;22;20793;-39
2023/08/21 02:54:57;;;;;;;11.03;10.03;;;23.20;99.90;;;;;;6339246;22;20350;-39
2023/08/21 02:57:24;;;;;;;10.20;9.50;;;23.10;99.90;;;;;;6337074;22;20797;-39
2023/08/21 02:59:50;;;;;;;12.00;10.90;;;23.10;99.90;;;;;;6336727;22;20426;-41
2023/08/21 03:02:16;;;;;;;11.40;10.40;;;23.10;99.90;;;;;;6339742;22;20461;-40
2023/08/21 03:04:42;;;;;;;11.40;10.53;;;23.10;99.90;;;;;;6339771;22;20177;-39
2023/08/21 03:07:07;;;;;;;11.50;10.60;;;23.10;99.90;;;;;;6336991;22;20381;-38
2023/08/21 03:09:33;;;;;;;11.97;10.97;;;23.10;99.90;;;;;;6336920;22;20189;-38
2023/08/21 03:11:58;;;;;;;10.73;9.83;;;23.00;99.90;;;;;;6337537;22;20201;-41
2023/08/21 03:14:26;;;;;;;12.13;11.20;;;23.00;99.90;;;;;;6337284;22;20174;-42
2023/08/21 03:16:52;;;;;;;11.87;10.87;;;23.00;99.90;;;;;;6338985;22;20179;-44
2023/08/21 03:19:17;;;;;;;11.93;11.03;;;22.90;99.90;;;;;;6338843;22;20694;-40
2023/08/21 03:21:43;;;;;;;12.13;11.13;;;22.90;99.90;;;;;;6337932;22;20223;-39
2023/08/21 03:24:09;;;;;;;11.47;10.57;;;22.90;99.90;;;;;;6337458;22;20151;-39
2023/08/21 03:26:34;;;;;;;11.30;10.50;;;22.90;99.90;;;;;;6338555;22;20566;-39
2023/08/21 03:29:00;;;;;;;11.50;10.50;;;22.90;1.00;;;;;;6337092;22;20170;-39
2023/08/21 03:31:26;;;;;;;10.57;9.73;;;22.80;1.00;;;;;;6336964;22;20258;-39
2023/08/21 03:33:52;;;;;;;12.33;11.10;;;22.70;1.00;;;;;;6336436;22;20151;-39
2023/08/21 03:36:18;;;;;;;12.77;11.77;;;22.80;1.00;;;;;;6338519;22;20139;-39
2023/08/21 03:38:44;;;;;;;10.93;10.13;;;22.70;1.00;;;;;;6337498;22;20157;-39
2023/08/21 03:41:10;;;;;;;12.40;11.20;;;22.60;1.00;;;;;;6337891;22;20668;-37
2023/08/21 03:43:36;;;;;;;11.93;10.83;;;22.60;1.00;;;;;;6336694;22;20193;-41
2023/08/21 03:46:02;;;;;;;11.53;10.30;;;22.60;1.00;;;;;;6339903;22;20353;-40
2023/08/21 03:48:27;;;;;;;11.40;10.50;;;22.60;1.00;;;;;;6337884;22;20254;-39
2023/08/21 03:50:53;;;;;;;11.13;10.13;;;22.60;1.00;;;;;;6338833;22;20234;-41
2023/08/21 03:53:19;;;;;;;11.47;10.53;;;22.60;1.00;;;;;;6313016;22;20147;-41
2023/08/21 03:55:44;;;;;;;11.77;10.60;;;22.60;1.00;;;;;;6339037;22;20226;-39
2023/08/21 03:58:10;;;;;;;11.07;10.27;;;22.60;1.00;;;;;;6338111;22;20185;-39
2023/08/21 04:00:36;;;;;;;12.30;11.00;;;22.60;1.00;;;;;;6339500;22;20207;-41
2023/08/21 04:03:02;;;;;;;11.83;10.73;;;22.60;1.00;;;;;;6339152;22;20576;-40
2023/08/21 04:05:27;;;;;;;11.00;9.87;;;22.70;1.00;;;;;;6340079;22;20538;-39
2023/08/21 04:07:53;;;;;;;11.97;11.07;;;22.70;1.00;;;;;;6338095;22;20476;-41
2023/08/21 04:10:19;;;;;;;11.00;10.07;;;22.60;1.00;;;;;;6335831;22;20218;-42
2023/08/21 04:12:44;;;;;;;11.93;10.83;;;22.60;1.00;;;;;;6335889;22;20131;-42
2023/08/21 04:15:10;;;;;;;11.63;10.63;;;22.50;1.00;;;;;;6337959;22;20174;-41
2023/08/21 04:17:37;;;;;;;11.93;10.83;;;22.40;1.00;;;;;;6336810;22;20220;-42
2023/08/21 04:20:02;;;;;;;12.20;11.20;;;22.40;1.00;;;;;;6337076;22;20201;-40
2023/08/21 04:22:28;;;;;;;11.87;10.73;;;22.30;1.00;;;;;;6338741;22;20354;-40
2023/08/21 04:24:54;;;;;;;12.17;11.17;;;22.30;1.00;;;;;;6337072;22;20445;-40
2023/08/21 04:27:19;;;;;;;12.33;11.10;;;22.20;1.00;;;;;;6337927;22;20166;-40
2023/08/21 04:29:45;;;;;;;13.30;12.07;;;22.20;1.00;;;;;;6335987;22;20174;-41
2023/08/21 04:32:12;;;;;;;11.00;10.10;;;22.20;1.00;;;;;;6338863;22;20190;-42
2023/08/21 04:34:37;;;;;;;12.27;11.17;;;22.20;1.00;;;;;;6340007;22;20230;-40
2023/08/21 04:37:04;;;;;;;12.23;11.13;;;22.20;1.00;;;;;;6339919;22;20459;-38
2023/08/21 04:39:30;;;;;;;11.77;10.67;;;22.20;1.00;;;;;;6337769;22;20546;-40
2023/08/21 04:41:55;;;;;;;11.57;10.40;;;22.20;1.00;;;;;;6337712;22;20396;-40
2023/08/21 04:44:21;;;;;;;11.93;10.97;;;22.20;1.00;;;;;;6338904;22;20147;-40
2023/08/21 04:46:49;;;;;;;11.37;10.47;;;22.30;1.00;;;;;;6338996;22;20350;-40
2023/08/21 04:49:14;;;;;;;12.33;11.03;;;22.30;1.00;;;;;;6336399;22;20411;-40
2023/08/21 04:51:40;;;;;;;11.37;10.37;;;22.30;1.00;;;;;;6336581;22;20855;-40
2023/08/21 04:54:05;;;;;;;11.77;10.77;;;22.30;1.00;;;;;;6335428;22;20155;-39
2023/08/21 04:56:31;;;;;;;13.77;12.57;;;22.30;1.00;;;;;;6336349;22;20430;-40
2023/08/21 04:58:57;;;;;;;11.33;10.33;;;22.30;1.00;;;;;;6336577;22;20373;-41
2023/08/21 05:01:22;;;;;;;11.90;10.60;;;22.30;1.00;;;;;;6336001;22;20158;-39
2023/08/21 05:03:48;;;;;;;13.00;11.10;;;22.20;1.00;;;;;;6336428;22;20135;-40
2023/08/21 05:06:15;;;;;;;12.87;11.87;;;22.20;1.00;;;;;;6338700;22;20147;-40
2023/08/21 05:08:40;;;;;;;11.83;10.70;;;22.20;1.00;;;;;;6338486;22;20545;-41
2023/08/21 05:11:06;;;;;;;12.83;11.80;;;22.20;1.00;;;;;;6337347;22;20424;-40
2023/08/21 05:13:32;;;;;;;11.50;10.50;;;22.30;1.00;;;;;;6338112;22;20144;-42
2023/08/21 05:15:58;;;;;;;12.03;10.83;;;22.30;1.00;;;;;;6337529;22;20132;-38
2023/08/21 05:18:24;;;;;;;12.30;11.00;;;22.40;1.00;;;;;;6337989;22;20646;-40
2023/08/21 05:20:50;;;;;;;11.23;10.27;;;22.50;1.00;;;;;;6339000;22;20377;-39
2023/08/21 05:23:16;;;;;;;13.63;12.23;;;22.50;1.00;;;;;;6338594;22;20806;-39
2023/08/21 05:25:44;;;;;;;12.13;11.00;;;22.60;1.00;;;;;;6339398;22;20385;-39
2023/08/21 05:28:09;;;;;;;12.47;11.27;;;22.60;1.00;;;;;;6339162;22;20128;-39
2023/08/21 05:30:38;;;;;;;11.70;10.80;;;22.70;1.00;;;;;;6339155;22;20417;-39
2023/08/21 05:33:04;;;;;;;13.00;11.87;;;22.80;1.00;;;;;;6338425;22;20461;-42
2023/08/21 05:35:35;;;;;;;11.40;10.57;;;22.90;1.00;;;;;;6338802;22;20446;-41
2023/08/21 05:38:02;;;;;;;12.17;10.97;;;23.00;1.00;;;;;;6336772;22;20424;-39
2023/08/21 05:40:27;;;;;;;13.53;12.23;;;23.00;1.00;;;;;;6338222;22;20381;-40
2023/08/21 05:42:53;;;;;;;11.40;10.40;;;23.10;99.90;;;;;;6336731;22;20381;-42
2023/08/21 05:45:18;;;;;;;11.93;10.93;;;23.10;99.90;;;;;;6335452;22;20147;-39
2023/08/21 05:47:44;;;;;;;13.73;12.43;;;23.10;99.90;;;;;;6334807;22;20152;-40
2023/08/21 05:50:10;;;;;;;11.87;10.87;;;23.20;99.90;;;;;;6337504;22;20201;-40
2023/08/21 05:52:36;;;;;;;12.13;11.03;;;23.10;99.90;;;;;;6337860;22;20159;-40
2023/08/21 05:55:01;;;;;;;13.10;11.80;;;23.20;99.90;;;;;;6337822;22;20381;-40
2023/08/21 05:57:27;;;;;;;12.10;11.10;;;23.30;99.90;;;;;;6335094;22;20534;-41
2023/08/21 05:59:52;;;;;;;12.63;11.43;;;23.30;99.90;;;;;;6337119;22;20384;-41
2023/08/21 06:02:18;;;;;;;11.10;10.00;;;23.40;99.90;;;;;;6337715;22;20530;-39
2023/08/21 06:04:44;;;;;;;11.97;11.03;;;23.60;94.40;;;;;;6337248;22;20355;-41
2023/08/21 06:07:10;;;;;;;11.57;10.57;;;23.70;1.00;;;;;;6336537;22;20151;-41
2023/08/21 06:09:36;;;;;;;11.97;10.87;;;23.90;1.00;;;;;;6336461;22;20195;-39
2023/08/21 06:12:05;;;;;;;11.77;10.77;;;24.00;1.00;;;;;;6335808;22;20278;-40
2023/08/21 06:14:31;;;;;;;12.77;11.67;;;24.10;99.90;;;;;;6337042;22;20489;-40
2023/08/21 06:17:02;;;;;;;12.03;11.03;;;24.20;99.90;;;;;;6335991;22;20756;-40
2023/08/21 06:19:28;;;;;;;11.40;10.40;;;24.30;99.90;;;;;;6338629;22;20377;-42
2023/08/21 06:21:55;;;;;;;11.03;10.03;;;24.40;99.90;;;;;;6336344;22;20395;-39
2023/08/21 06:24:20;;;;;;;13.70;11.43;;;24.60;1.00;;;;;;6335394;22;20485;-42
2023/08/21 06:26:46;;;;;;;12.00;11.00;;;24.70;1.00;;;;;;6338000;22;20641;-39
2023/08/21 06:29:11;;;;;;;11.30;10.30;;;24.70;99.90;;;;;;6337035;22;20317;-40
2023/08/21 06:31:37;;;;;;;12.37;11.30;;;24.90;99.90;;;;;;6339152;22;20250;-41
2023/08/21 06:34:03;;;;;;;12.13;10.97;;;25.00;54.10;;;;;;6339498;22;20425;-39
2023/08/21 06:36:28;;;;;;;11.40;10.43;;;25.10;1.00;;;;;;6339073;22;20143;-40
2023/08/21 06:38:55;;;;;;;11.50;10.40;;;25.30;99.90;;;;;;6335224;22;20158;-40
2023/08/21 06:41:21;;;;;;;11.47;10.53;;;25.40;99.90;;;;;;6335641;22;20136;-40
2023/08/21 06:43:46;;;;;;;11.67;10.57;;;25.50;1.00;;;;;;6336792;22;20470;-38
2023/08/21 06:46:12;;;;;;;11.93;10.83;;;25.70;99.90;;;;;;6337716;22;20147;-41
2023/08/21 06:48:40;;;;;;;11.97;10.70;;;25.70;1.00;;;;;;6334829;22;20163;-40
2023/08/21 06:51:06;;;;;;;11.60;10.60;;;25.80;99.90;;;;;;6337400;22;20425;-39
2023/08/21 06:53:32;;;;;;;10.97;9.97;;;25.80;99.90;;;;;;6336436;22;20657;-39
2023/08/21 06:55:58;;;;;;;11.83;10.73;;;25.90;99.90;;;;;;6338793;22;20353;-40
2023/08/21 06:58:23;;;;;;;11.37;10.37;;;26.20;28.70;;;;;;6340226;22;20143;-40
2023/08/21 07:00:49;;;;;;;11.23;10.23;;;26.30;1.00;;;;;;6340297;22;20152;-40
2023/08/21 07:03:15;;;;;;;11.37;10.37;;;26.60;99.90;;;;;;6339260;22;20147;-40
2023/08/21 07:05:40;;;;;;;10.57;9.77;;;26.80;99.90;;;;;;6337938;22;20442;-39
2023/08/21 07:08:06;;;;;;;10.67;9.77;;;27.00;1.00;;;;;;6339128;22;20470;-39
2023/08/21 07:10:38;;;;;;;11.03;9.93;;;27.10;99.90;;;;;;6337436;22;20440;-39
2023/08/21 07:13:03;;;;;;;13.23;11.80;;;27.20;99.90;;;;;;6338411;22;20479;-40
2023/08/21 07:15:29;;;;;;;11.20;10.10;;;27.30;99.90;;;;;;6336522;22;20377;-40
2023/08/21 07:17:55;;;;;;;11.70;10.30;;;27.40;95.50;;;;;;6336322;22;20596;-41
2023/08/21 07:20:22;;;;;;;12.30;11.07;;;27.60;17.50;;;;;;6336046;22;20780;-41
2023/08/21 07:22:47;;;;;;;10.17;9.23;;;27.90;1.00;;;;;;6334697;22;20163;-39
2023/08/21 07:25:13;;;;;;;13.63;10.17;;;28.20;1.00;;;;;;6336387;22;20463;-41
2023/08/21 07:27:39;;;;;;;12.40;10.97;;;28.40;1.00;;;;;;6337408;22;20151;-38
2023/08/21 07:30:06;;;;;;;11.93;10.67;;;28.70;99.90;;;;;;6337388;22;20285;-44
2023/08/21 07:32:32;;;;;;;11.57;10.13;;;28.90;99.90;;;;;;6337352;22;20518;-37
2023/08/21 07:34:58;;;;;;;10.47;9.57;;;29.00;99.90;;;;;;6338039;22;20358;-37
2023/08/21 07:37:24;;;;;;;10.67;9.60;;;29.10;99.90;;;;;;6338313;22;20280;-38
2023/08/21 07:39:49;;;;;;;11.37;10.37;;;29.30;99.90;;;;;;6335485;22;20398;-37
2023/08/21 07:42:15;;;;;;;11.60;10.50;;;29.60;99.90;;;;;;6338071;22;20447;-39
2023/08/21 07:44:41;;;;;;;12.13;11.03;;;29.80;99.90;;;;;;6336857;22;20162;-42
2023/08/21 07:47:06;;;;;;;13.17;11.80;;;30.10;99.90;;;;;;6337801;22;20200;-37
2023/08/21 07:49:35;;;;;;;12.70;11.47;;;30.40;99.90;;;;;;6337701;22;20147;-36
2023/08/21 07:52:00;;;;;;;12.60;11.40;;;30.50;88.50;;;;;;6335252;22;20183;-37
2023/08/21 07:54:26;;;;;;;14.60;13.10;;;30.20;68.30;;;;;;6336301;22;20385;-37
2023/08/21 07:56:52;;;;;;;14.60;12.50;;;30.30;51.70;;;;;;6334776;22;20301;-37
2023/08/21 07:59:19;;;;;;;12.40;11.30;;;30.30;52.80;;;;;;6337023;22;20337;-36
2023/08/21 08:01:45;;;;;;;12.93;11.57;;;30.50;43.20;;;;;;6333976;22;20420;-39
2023/08/21 08:04:11;;;;;;;11.00;10.10;;;30.70;29.70;;;;;;6335909;22;20377;-39
2023/08/21 08:06:36;;;;;;;10.80;10.00;;;30.90;14.00;;;;;;6334981;22;20611;-37
2023/08/21 08:09:03;;;;;;;12.73;11.50;;;31.20;8.20;;;;;;6334746;22;20307;-40
2023/08/21 08:11:29;;;;;;;11.53;10.50;;;31.50;1.00;;;;;;6334463;22;20205;-37
2023/08/21 08:13:55;;;;;;;11.40;10.27;;;31.80;1.00;;;;;;6333994;22;20388;-38
2023/08/21 08:16:21;;;;;;;14.93;9.33;;;32.10;1.00;;;;;;6333575;22;20445;-40
2023/08/21 08:18:47;;;;;;;10.73;9.80;;;32.20;1.00;;;;;;6336103;22;20361;-36
2023/08/21 08:21:12;;;;;;;11.00;10.10;;;32.20;1.00;;;;;;6336087;22;20155;-37
2023/08/21 08:23:38;;;;;;;10.90;9.90;;;32.10;1.00;;;;;;6335868;22;20433;-37
2023/08/21 08:26:04;;;;;;;10.67;9.67;;;32.00;1.00;;;;;;6333344;22;20570;-39
2023/08/21 08:28:30;;;;;;;9.97;9.17;;;31.90;1.00;;;;;;6334331;22;20473;-38
2023/08/21 08:30:57;;;;;;;11.40;9.97;;;32.10;1.00;;;;;;6334280;22;20397;-37
2023/08/21 08:33:23;;;;;;;10.27;9.37;;;32.50;1.00;;;;;;6335840;22;20158;-39
2023/08/21 08:35:49;;;;;;;11.07;9.97;;;32.90;1.00;;;;;;6336819;22;20356;-37
2023/08/21 08:38:14;;;;;;;10.60;9.70;;;33.20;1.00;;;;;;6337812;22;20213;-38
2023/08/21 08:40:46;;;;;;;9.63;8.93;;;33.30;1.00;;;;;;6337280;22;20392;-38
2023/08/21 08:43:13;;;;;;;10.00;9.20;;;33.60;1.00;;;;;;6307295;22;20147;-38
2023/08/21 08:45:40;;;;;;;11.00;9.90;;;33.90;1.00;;;;;;6333991;22;20831;-37
2023/08/21 08:48:06;;;;;;;10.07;9.20;;;34.20;1.00;;;;;;6334941;22;20386;-37
2023/08/21 08:50:33;;;;;;;8.40;7.80;;;34.20;1.00;;;;;;6336862;22;20500;-38
2023/08/21 08:53:00;;;;;;;8.00;7.30;;;34.20;1.00;;;;;;6336433;22;20381;-38
2023/08/21 08:55:26;;;;;;;7.97;7.37;;;34.50;1.00;;;;;;6334174;22;20361;-39
2023/08/21 08:57:52;;;;;;;9.57;8.43;;;34.80;1.00;;;;;;6332541;22;20335;-40
2023/08/21 09:00:19;;;;;;;7.80;7.20;;;35.00;1.00;;;;;;6332302;22;20360;-36
2023/08/21 09:02:46;;;;;;;8.77;8.07;;;35.00;1.00;;;;;;6335633;22;20373;-38
2023/08/21 09:05:12;;;;;;;9.37;8.67;;;35.10;1.00;;;;;;6335624;22;20388;-37
2023/08/21 09:07:38;;;;;;;9.40;8.60;;;35.20;1.00;;;;;;6335309;22;20552;-39
2023/08/21 09:10:05;;;;;;;11.17;8.90;;;35.50;1.00;;;;;;6336135;22;20775;-37
2023/08/21 09:12:33;;;;;;;9.90;9.10;;;35.70;1.00;;;;;;6332516;22;20401;-39
2023/08/21 09:14:59;;;;;;;9.03;8.33;;;36.00;1.00;;;;;;6330956;22;20360;-39
2023/08/21 09:17:26;;;;;;;8.97;8.27;;;36.10;1.00;;;;;;6330170;22;20457;-38
2023/08/21 09:19:52;;;;;;;9.23;8.50;;;36.10;1.00;;;;;;6333197;22;20453;-38
2023/08/21 09:22:18;;;;;;;8.80;8.10;;;35.90;1.00;;;;;;6333519;22;20343;-39
2023/08/21 09:25:08;;;;;;;10.07;9.27;;;35.70;1.00;;;;;;6332757;22;20246;-36
2023/08/21 09:27:35;;;;;;;10.10;9.20;;;35.40;1.00;;;;;;6336399;22;20398;-38
2023/08/21 09:30:14;;;;;;;9.83;9.03;;;35.10;1.00;;;;;;6336065;22;20426;-38
2023/08/21 09:33:04;;;;;;;9.00;8.30;;;34.70;1.00;;;;;;6336683;22;20417;-37
2023/08/21 09:35:32;;;;;;;8.70;8.10;;;34.30;1.00;;;;;;6336974;22;20356;-37
2023/08/21 09:37:59;;;;;;;10.10;9.30;;;34.10;1.00;;;;;;6336859;22;20355;-37
2023/08/21 09:40:24;;;;;;;10.57;9.50;;;34.10;1.00;;;;;;6336941;22;20449;-38
2023/08/21 09:42:54;;;;;;;10.43;9.60;;;34.20;1.00;;;;;;6336719;22;20339;-39
2023/08/21 09:45:22;;;;;;;9.70;9.00;;;34.40;1.00;;;;;;6337199;22;20205;-38
2023/08/21 09:47:49;;;;;;;8.77;8.17;;;34.90;1.00;;;;;;6336050;22;20397;-38
2023/08/21 09:50:14;;;;;;;9.90;9.10;;;35.40;1.00;;;;;;6337001;22;20450;-38
2023/08/21 09:52:40;;;;;;;10.00;9.20;;;35.90;1.00;;;;;;6333438;22;20496;-39
2023/08/21 09:55:07;;;;;;;9.80;9.00;;;36.10;1.00;;;;;;6331726;22;20328;-39
2023/08/21 09:57:33;;;;;;;10.30;9.30;;;36.10;1.00;;;;;;6332752;22;20155;-36
2023/08/21 09:59:59;;;;;;;9.60;8.30;;;35.90;1.00;;;;;;6333055;22;20954;-37
2023/08/21 10:02:26;;;;;;;9.93;8.90;;;35.50;1.00;;;;;;6336136;22;20385;-38
2023/08/21 10:04:52;;;;;;;10.60;9.70;;;34.50;1.00;;;;;;6337748;22;20487;-38
2023/08/21 10:07:22;;;;;;;9.80;8.90;;;34.60;1.00;;;;;;6334404;22;20645;-39
2023/08/21 10:09:47;;;;;;;10.20;8.83;;;35.10;1.00;;;;;;6334267;22;20362;-39
2023/08/21 10:12:14;;;;;;;9.90;9.10;;;35.70;1.00;;;;;;6333941;22;20399;-40
2023/08/21 10:14:41;;;;;;;9.00;8.40;;;36.70;1.00;;;;;;6336130;22;20171;-38
2023/08/21 10:17:10;;;;;;;10.23;9.33;;;37.70;1.00;;;;;;6336208;22;20373;-37
2023/08/21 10:19:36;;;;;;;10.20;9.40;;;38.50;1.00;;;;;;6334895;22;20393;-37
2023/08/21 10:22:03;;;;;;;9.97;9.10;;;39.20;1.00;;;;;;6337665;22;20468;-39
2023/08/21 10:24:38;;;;;;;11.17;10.27;;;39.80;1.00;;;;;;6339002;22;20417;-39
2023/08/21 10:27:04;;;;;;;10.03;9.13;;;40.40;1.00;;;;;;6338322;22;20423;-39
2023/08/21 10:29:31;;;;;;;9.67;8.43;;;40.90;1.00;;;;;;6336482;22;20764;-39
2023/08/21 10:32:04;;;;;;;10.70;9.87;;;41.20;1.00;;;;;;6337486;22;20439;-40
2023/08/21 10:34:37;;;;;;;10.47;9.77;;;41.50;1.00;;;;;;6335203;22;20456;-37
2023/08/21 10:37:12;;;;;;;10.80;10.10;;;41.00;1.00;;;;;;6339880;22;20787;-37
2023/08/21 10:39:39;;;;;;;10.90;10.00;;;40.10;1.00;;;;;;6338078;22;20822;-39
2023/08/21 10:42:14;;;;;;;10.70;9.80;;;39.20;1.00;;;;;;6339726;22;20780;-38
2023/08/21 10:44:42;;;;;;;9.87;9.17;;;38.50;1.00;;;;;;6339187;22;20672;-37
2023/08/21 10:47:30;;;;;;;9.80;9.10;;;37.90;1.00;;;;;;6336299;22;20458;-39
2023/08/21 10:50:06;;;;;;;10.43;9.63;;;38.10;1.00;;;;;;6336959;22;20397;-41
2023/08/21 10:52:37;;;;;;;9.70;9.00;;;38.90;1.00;;;;;;6335715;22;20860;-38
2023/08/21 10:55:04;;;;;;;9.60;8.80;;;39.80;1.00;;;;;;6335846;22;20749;-38
2023/08/21 10:57:31;;;;;;;10.73;9.83;;;40.60;1.00;;;;;;6337886;22;20766;-38
2023/08/21 10:59:59;;;;;;;9.87;9.07;;;40.80;1.00;;;;;;6337573;22;20836;-40
2023/08/21 11:02:29;;;;;;;13.97;12.57;;;40.80;1.00;;;;;;6338192;22;20664;-38
2023/08/21 11:04:55;;;;;;;16.90;12.93;;;40.90;1.00;;;;;;6338167;22;20381;-38
2023/08/21 11:07:21;;;;;;;13.87;12.57;;;41.20;1.00;;;;;;6337477;22;20718;-40
2023/08/21 11:09:47;;;;;;;15.77;12.17;;;41.70;1.00;;;;;;6337978;22;20365;-38
2023/08/21 11:12:15;;;;;;;14.70;13.33;;;42.20;1.00;;;;;;6337445;22;20425;-38
2023/08/21 11:14:41;;;;;;;10.60;9.40;;;42.20;1.00;;;;;;6322897;22;20733;-37
2023/08/21 11:17:08;;;;;;;10.53;9.80;;;41.50;1.00;;;;;;6335266;22;20373;-43
2023/08/21 11:19:34;;;;;;;11.97;10.90;;;40.10;1.00;;;;;;6337442;22;20178;-39
2023/08/21 11:22:03;;;;;;;12.80;10.20;;;39.10;1.00;;;;;;6337022;22;20449;-38
2023/08/21 11:24:46;;;;;;;10.87;9.97;;;39.00;1.00;;;;;;6334428;22;20392;-37
2023/08/21 11:27:14;;;;;;;10.70;9.83;;;38.70;1.00;;;;;;6336633;22;20606;-39
2023/08/21 11:29:50;;;;;;;14.90;13.80;;;39.10;1.00;;;;;;6338256;22;20433;-38
2023/08/21 11:32:17;;;;;;;16.30;15.10;;;39.30;1.00;;;;;;6338413;22;20547;-38
2023/08/21 11:34:51;;;;;;;12.20;11.30;;;39.10;1.00;;;;;;6335441;22;20409;-37
2023/08/21 11:37:18;;;;;;;29.20;27.03;;;38.60;1.00;;;;;;6337834;22;20569;-38
2023/08/21 11:40:07;;;;;;;21.70;19.90;;;38.30;1.00;;;;;;6336917;22;20358;-38
2023/08/21 11:42:33;;;;;;;24.57;22.57;;;38.00;1.00;;;;;;6334582;22;20385;-39
2023/08/21 11:45:00;;;;;;;55.77;51.57;;;37.80;1.00;;;;;;6332624;22;20404;-39
2023/08/21 11:47:34;;;;;;;17.33;16.10;;;37.90;1.00;;;;;;6333861;22;20688;-42
2023/08/21 11:50:04;;;;;;;17.73;16.20;;;38.00;1.00;;;;;;6333578;22;20626;-38
2023/08/21 11:52:31;;;;;;;11.93;11.03;;;38.00;1.00;;;;;;6333005;22;20432;-37
2023/08/21 11:54:58;;;;;;;20.30;18.87;;;37.70;1.00;;;;;;6333671;22;20387;-37
2023/08/21 11:57:24;;;;;;;23.00;21.30;;;37.40;1.00;;;;;;6335214;22;20373;-44
2023/08/21 11:59:54;;;;;;;16.60;15.30;;;37.00;1.00;;;;;;6333343;22;20435;-39
2023/08/21 12:02:25;;;;;;;13.03;11.93;;;36.60;1.00;;;;;;6336434;22;20392;-37
2023/08/21 12:05:07;;;;;;;11.57;10.77;;;36.30;1.00;;;;;;6338911;22;20393;-37
2023/08/21 12:07:33;;;;;;;13.03;11.83;;;36.20;1.00;;;;;;6310674;22;20436;-37
2023/08/21 12:09:59;;;;;;;11.97;10.90;;;36.20;1.00;;;;;;6335808;22;20438;-38
2023/08/21 12:12:25;;;;;;;10.93;10.03;;;36.00;1.00;;;;;;6331766;22;20518;-37
2023/08/21 12:14:51;;;;;;;11.47;10.40;;;35.90;1.00;;;;;;6335769;22;20787;-37
2023/08/21 12:17:16;;;;;;;11.20;10.27;;;35.70;1.00;;;;;;6335138;22;20151;-38
2023/08/21 12:19:43;;;;;;;11.77;10.73;;;35.60;1.00;;;;;;6333785;22;20151;-37
2023/08/21 12:22:09;;;;;;;15.03;13.97;;;35.40;1.00;;;;;;6335715;22;20131;-36
2023/08/21 12:24:36;;;;;;;22.10;20.40;;;35.20;1.00;;;;;;6339719;22;20363;-37
2023/08/21 12:27:03;;;;;;;18.67;17.17;;;35.20;1.00;;;;;;6337630;22;20948;-39
2023/08/21 12:29:29;;;;;;;15.70;14.40;;;36.00;1.00;;;;;;6335827;22;20535;-38
2023/08/21 12:31:55;;;;;;;23.07;21.20;;;37.00;1.00;;;;;;6339891;22;20437;-38
2023/08/21 12:34:21;;;;;;;16.43;15.07;;;38.10;1.00;;;;;;6337333;22;20173;-37
2023/08/21 12:36:46;;;;;;;11.50;10.40;;;38.60;1.00;;;;;;6337075;22;20151;-37